createdAt,value
2018-05-29T00:01:04.841Z,77.81
2018-05-29T00:02:36.494Z,77.60
2018-05-29T00:03:59.530Z,77.48
2018-05-29T00:05:27.175Z,77.51
2018-05-29T00:06:54.487Z,77.82
2018-05-29T00:08:25.939Z,77.81
2018-05-29T00:09:53.328Z,77.82
2018-05-29T00:11:16.387Z,77.96
2018-05-29T00:12:44.854Z,78.29
2018-05-29T00:14:11.593Z,78.33
2018-05-29T00:15:39.053Z,78.24
2018-05-29T00:17:06.566Z,78.35
2018-05-29T00:18:37.908Z,78.33
2018-05-29T00:20:01.365Z,78.63
2018-05-29T00:21:28.656Z,79.01
2018-05-29T00:22:56.306Z,79.02
2018-05-29T00:24:27.306Z,79.20
2018-05-29T00:25:50.349Z,79.13
2018-05-29T00:27:17.453Z,79.19
2018-05-29T00:28:44.868Z,79.02
2018-05-29T00:30:12.118Z,79.24
2018-05-29T00:31:43.613Z,79.17
2018-05-29T00:33:11.169Z,79.57
2018-05-29T00:34:38.682Z,79.32
2018-05-29T00:36:06.091Z,79.54
2018-05-29T00:37:29.275Z,79.79
2018-05-29T00:38:56.755Z,79.35
2018-05-29T00:40:24.159Z,79.56
2018-05-29T00:41:55.130Z,79.95
2018-05-29T00:43:18.189Z,79.74
2018-05-29T00:44:45.484Z,79.80
2018-05-29T00:46:12.305Z,79.90
2018-05-29T00:47:39.722Z,79.89
2018-05-29T00:49:10.773Z,80.07
2018-05-29T00:50:38.208Z,79.49
2018-05-29T00:52:01.570Z,79.39
2018-05-29T00:53:33.044Z,80.09
2018-05-29T00:54:56.451Z,79.87
2018-05-29T00:56:23.669Z,79.95
2018-05-29T00:57:50.587Z,79.75
2018-05-29T00:59:21.340Z,79.51
2018-05-29T01:00:44.755Z,79.88
2018-05-29T01:02:12.215Z,80.14
2018-05-29T01:03:39.518Z,80.20
2018-05-29T01:05:11.150Z,80.09
2018-05-29T01:06:38.604Z,80.19
2018-05-29T01:08:06.124Z,80.16
2018-05-29T01:09:33.572Z,80.42
2018-05-29T01:11:00.501Z,80.63
2018-05-29T01:12:24.006Z,80.38
2018-05-29T01:13:55.281Z,80.65
2018-05-29T01:15:22.067Z,80.71
2018-05-29T01:16:44.907Z,80.80
2018-05-29T01:18:12.507Z,81.00
2018-05-29T01:19:43.513Z,80.76
2018-05-29T01:21:11.050Z,80.77
2018-05-29T01:22:33.873Z,81.34
2018-05-29T01:24:01.323Z,81.07
2018-05-29T01:25:28.955Z,80.92
2018-05-29T01:26:56.292Z,81.34
2018-05-29T01:28:23.616Z,81.38
2018-05-29T01:29:51.200Z,81.31
2018-05-29T01:31:18.688Z,81.46
2018-05-29T01:32:46.191Z,81.54
2018-05-29T01:34:13.627Z,81.40
2018-05-29T01:35:40.928Z,81.58
2018-05-29T01:37:08.174Z,81.75
2018-05-29T01:38:35.506Z,81.93
2018-05-29T01:40:02.932Z,81.53
2018-05-29T01:41:30.393Z,81.58
2018-05-29T01:42:56.956Z,81.90
2018-05-29T01:44:24.503Z,81.91
2018-05-29T01:45:52.102Z,81.79
2018-05-29T01:47:19.276Z,81.75
2018-05-29T01:48:50.378Z,81.91
2018-05-29T01:50:14.002Z,82.27
2018-05-29T01:51:45.361Z,82.06
2018-05-29T01:53:08.899Z,81.97
2018-05-29T01:54:40.363Z,82.06
2018-05-29T01:56:07.779Z,82.04
2018-05-29T01:57:30.752Z,82.23
2018-05-29T01:58:58.150Z,82.52
2018-05-29T02:00:29.567Z,82.42
2018-05-29T02:01:56.659Z,82.45
2018-05-29T02:03:20.092Z,82.87
2018-05-29T02:04:47.501Z,82.57
2018-05-29T02:06:18.478Z,82.58
2018-05-29T02:07:45.761Z,82.78
2018-05-29T02:09:13.049Z,82.76
2018-05-29T02:10:40.662Z,82.74
2018-05-29T02:12:04.102Z,83.27
2018-05-29T02:13:31.618Z,83.50
2018-05-29T02:14:59.090Z,83.70
2018-05-29T02:16:30.451Z,83.59
2018-05-29T02:17:53.777Z,83.51
2018-05-29T02:19:20.888Z,83.71
2018-05-29T02:20:48.446Z,83.75
2018-05-29T02:22:15.720Z,83.51
2018-05-29T02:23:43.006Z,82.95
2018-05-29T02:25:10.625Z,83.26
2018-05-29T02:26:37.915Z,82.83
2018-05-29T02:28:04.753Z,83.41
2018-05-29T02:29:31.941Z,82.64
2018-05-29T02:31:03.501Z,83.15
2018-05-29T02:32:27.081Z,83.03
2018-05-29T02:33:54.372Z,82.92
2018-05-29T02:35:21.671Z,83.31
2018-05-29T02:36:48.947Z,83.28
2018-05-29T02:38:20.578Z,83.17
2018-05-29T02:39:43.568Z,83.57
2018-05-29T02:41:11.208Z,83.61
2018-05-29T02:42:38.747Z,83.90
2018-05-29T02:44:09.927Z,83.75
2018-05-29T02:45:33.284Z,83.94
2018-05-29T02:47:04.255Z,83.80
2018-05-29T02:48:27.231Z,83.93
2018-05-29T02:49:54.122Z,83.94
2018-05-29T02:51:21.489Z,84.01
2018-05-29T02:52:52.815Z,84.16
2018-05-29T02:54:15.654Z,83.98
2018-05-29T02:55:47.236Z,83.77
2018-05-29T02:57:10.901Z,83.83
2018-05-29T02:58:42.165Z,83.90
2018-05-29T03:00:05.522Z,83.67
2018-05-29T03:01:32.944Z,83.86
2018-05-29T03:03:00.554Z,83.77
2018-05-29T03:04:31.875Z,83.66
2018-05-29T03:05:55.119Z,84.11
2018-05-29T03:07:26.586Z,84.13
2018-05-29T03:08:53.971Z,84.12
2018-05-29T03:10:20.571Z,83.93
2018-05-29T03:11:43.589Z,84.12
2018-05-29T03:13:11.037Z,83.93
2018-05-29T03:14:38.489Z,84.31
2018-05-29T03:16:06.010Z,84.46
2018-05-29T03:17:33.467Z,84.58
2018-05-29T03:19:00.947Z,84.56
2018-05-29T03:20:28.601Z,84.60
2018-05-29T03:21:56.007Z,84.65
2018-05-29T03:23:23.662Z,84.67
2018-05-29T03:24:51.152Z,84.98
2018-05-29T03:26:17.788Z,84.67
2018-05-29T03:27:45.178Z,84.83
2018-05-29T03:29:12.717Z,84.65
2018-05-29T03:30:39.668Z,84.86
2018-05-29T03:32:06.754Z,84.60
2018-05-29T03:33:34.185Z,84.70
2018-05-29T03:35:01.567Z,84.83
2018-05-29T03:36:28.711Z,84.64
2018-05-29T03:37:56.055Z,84.72
2018-05-29T03:39:23.679Z,85.05
2018-05-29T03:40:51.182Z,85.13
2018-05-29T03:42:22.573Z,84.79
2018-05-29T03:43:45.908Z,84.56
2018-05-29T03:45:16.641Z,84.74
2018-05-29T03:46:40.022Z,84.51
2018-05-29T03:48:07.439Z,84.71
2018-05-29T03:49:34.506Z,84.73
2018-05-29T03:51:01.828Z,84.84
2018-05-29T03:52:33.419Z,84.35
2018-05-29T03:54:01.159Z,84.26
2018-05-29T03:55:24.407Z,83.55
2018-05-29T03:56:51.876Z,82.99
2018-05-29T03:58:19.391Z,83.45
2018-05-29T03:59:46.012Z,82.78
2018-05-29T04:01:17.445Z,83.15
2018-05-29T04:02:40.820Z,84.01
2018-05-29T04:04:08.098Z,81.99
2018-05-29T04:05:35.670Z,83.43
2018-05-29T04:07:03.035Z,83.17
2018-05-29T04:08:30.120Z,83.32
2018-05-29T04:10:01.772Z,83.54
2018-05-29T04:11:28.610Z,83.98
2018-05-29T04:12:55.980Z,84.39
2018-05-29T04:14:23.154Z,83.79
2018-05-29T04:15:46.615Z,84.19
2018-05-29T04:17:17.440Z,84.38
2018-05-29T04:18:40.858Z,84.63
2018-05-29T04:20:08.343Z,84.32
2018-05-29T04:21:35.818Z,83.88
2018-05-29T04:23:07.235Z,84.21
2018-05-29T04:24:30.766Z,84.34
2018-05-29T04:25:58.085Z,84.68
2018-05-29T04:27:25.796Z,85.15
2018-05-29T04:28:57.171Z,84.83
2018-05-29T04:30:20.043Z,85.28
2018-05-29T04:31:51.871Z,84.80
2018-05-29T04:33:18.919Z,85.11
2018-05-29T04:34:46.348Z,85.97
2018-05-29T04:36:09.230Z,82.97
2018-05-29T04:37:36.657Z,84.18
2018-05-29T04:39:04.155Z,84.50
2018-05-29T04:40:31.290Z,83.84
2018-05-29T04:41:58.313Z,83.03
2018-05-29T04:43:25.467Z,82.92
2018-05-29T04:44:52.990Z,83.19
2018-05-29T04:46:20.270Z,82.97
2018-05-29T04:47:51.310Z,84.14
2018-05-29T04:49:14.223Z,81.16
2018-05-29T04:50:41.656Z,80.96
2018-05-29T04:52:13.200Z,82.31
2018-05-29T04:53:36.180Z,81.42
2018-05-29T04:55:03.714Z,80.71
2018-05-29T04:56:31.031Z,82.74
2018-05-29T04:58:02.173Z,81.08
2018-05-29T04:59:25.529Z,80.68
2018-05-29T05:00:52.850Z,80.16
2018-05-29T05:02:20.375Z,80.05
2018-05-29T05:03:47.838Z,80.56
2018-05-29T05:05:19.366Z,81.50
2018-05-29T05:06:43.016Z,80.74
2018-05-29T05:08:13.987Z,80.64
2018-05-29T05:09:37.193Z,79.52
2018-05-29T05:11:08.731Z,78.78
2018-05-29T05:12:36.199Z,78.59
2018-05-29T05:13:59.637Z,79.09
2018-05-29T05:15:26.924Z,78.66
2018-05-29T05:16:54.473Z,78.80
2018-05-29T05:18:21.598Z,76.96
2018-05-29T05:19:48.663Z,76.91
2018-05-29T05:21:16.353Z,75.87
2018-05-29T05:22:43.811Z,75.35
2018-05-29T05:24:11.422Z,74.77
2018-05-29T05:25:38.897Z,75.51
2018-05-29T05:27:06.380Z,75.56
2018-05-29T05:28:34.050Z,74.57
2018-05-29T05:30:05.360Z,74.25
2018-05-29T05:31:32.553Z,73.01
2018-05-29T05:32:56.059Z,72.58
2018-05-29T05:34:23.326Z,72.93
2018-05-29T05:35:50.773Z,72.36
2018-05-29T05:37:22.508Z,72.38
2018-05-29T05:38:45.747Z,71.26
2018-05-29T05:40:13.405Z,71.08
2018-05-29T05:41:40.683Z,71.27
2018-05-29T05:43:08.300Z,69.90
2018-05-29T05:44:40.015Z,70.37
2018-05-29T05:46:03.242Z,70.20
2018-05-29T05:47:30.675Z,70.27
2018-05-29T05:48:58.095Z,69.88
2018-05-29T05:50:25.677Z,68.76
2018-05-29T05:51:53.043Z,68.71
2018-05-29T05:53:24.605Z,67.55
2018-05-29T05:54:51.955Z,67.46
2018-05-29T05:56:15.329Z,67.03
2018-05-29T05:57:42.994Z,67.20
2018-05-29T05:59:10.549Z,66.69
2018-05-29T06:00:38.093Z,67.16
2018-05-29T06:02:05.579Z,66.99
2018-05-29T06:03:37.133Z,66.81
2018-05-29T06:05:04.714Z,65.86
2018-05-29T06:06:32.099Z,66.17
2018-05-29T06:07:55.497Z,65.50
2018-05-29T06:09:26.731Z,66.53
2018-05-29T06:10:49.946Z,65.76
2018-05-29T06:12:21.484Z,65.22
2018-05-29T06:13:45.112Z,64.40
2018-05-29T06:15:12.743Z,64.57
2018-05-29T06:16:44.224Z,63.46
2018-05-29T06:18:11.744Z,63.41
2018-05-29T06:19:39.353Z,64.09
2018-05-29T06:21:06.854Z,63.00
2018-05-29T06:22:30.205Z,62.31
2018-05-29T06:23:57.814Z,63.05
2018-05-29T06:25:29.459Z,62.75
2018-05-29T06:26:53.059Z,61.17
2018-05-29T06:28:24.697Z,61.11
2018-05-29T06:29:48.411Z,62.09
2018-05-29T06:31:16.192Z,61.14
2018-05-29T06:32:47.519Z,61.20
2018-05-29T06:34:11.000Z,61.06
2018-05-29T06:35:38.547Z,60.52
2018-05-29T06:37:06.063Z,61.22
2018-05-29T06:38:33.515Z,60.14
2018-05-29T06:40:00.990Z,60.64
2018-05-29T06:41:28.631Z,60.37
2018-05-29T06:43:00.219Z,60.17
2018-05-29T06:44:27.952Z,60.03
2018-05-29T06:45:55.527Z,58.57
2018-05-29T06:47:19.127Z,60.29
2018-05-29T06:48:50.499Z,59.01
2018-05-29T06:50:14.120Z,59.30
2018-05-29T06:51:41.388Z,59.72
2018-05-29T06:53:09.076Z,60.29
2018-05-29T06:54:36.726Z,59.35
2018-05-29T06:56:04.064Z,59.33
2018-05-29T06:57:35.402Z,61.27
2018-05-29T06:59:02.941Z,59.90
2018-05-29T07:00:26.290Z,60.68
2018-05-29T07:01:57.521Z,61.61
2018-05-29T07:03:21.099Z,61.08
2018-05-29T07:04:48.773Z,60.39
2018-05-29T07:06:16.411Z,60.43
2018-05-29T07:07:48.022Z,60.64
2018-05-29T07:09:15.310Z,59.45
2018-05-29T07:10:38.473Z,60.09
2018-05-29T07:12:06.041Z,59.98
2018-05-29T07:13:33.720Z,58.18
2018-05-29T07:15:00.965Z,57.91
2018-05-29T07:16:28.637Z,57.40
2018-05-29T07:17:56.311Z,58.37
2018-05-29T07:19:23.977Z,57.77
2018-05-29T07:20:51.399Z,58.51
2018-05-29T07:22:19.024Z,57.65
2018-05-29T07:23:46.644Z,57.38
2018-05-29T07:25:14.320Z,58.17
2018-05-29T07:26:42.039Z,58.30
2018-05-29T07:28:09.681Z,57.97
2018-05-29T07:29:37.302Z,57.84
2018-05-29T07:31:04.572Z,58.49
2018-05-29T07:32:36.122Z,58.27
2018-05-29T07:34:03.502Z,58.98
2018-05-29T07:35:27.094Z,58.68
2018-05-29T07:36:58.624Z,59.77
2018-05-29T07:38:22.016Z,59.27
2018-05-29T07:39:53.369Z,58.80
2018-05-29T07:41:17.030Z,58.52
2018-05-29T07:42:44.626Z,58.60
2018-05-29T07:44:11.905Z,59.17
2018-05-29T07:45:39.339Z,58.91
2018-05-29T07:47:06.834Z,58.05
2018-05-29T07:48:34.578Z,57.73
2018-05-29T07:50:06.051Z,59.09
2018-05-29T07:51:29.251Z,59.33
2018-05-29T07:52:56.941Z,61.67
2018-05-29T07:54:24.613Z,60.41
2018-05-29T07:55:52.158Z,58.08
2018-05-29T07:57:19.422Z,59.89
2018-05-29T07:58:46.920Z,58.94
2018-05-29T08:00:14.424Z,57.71
2018-05-29T08:01:41.978Z,58.64
2018-05-29T08:03:09.733Z,57.87
2018-05-29T08:04:41.383Z,57.39
2018-05-29T08:06:05.371Z,58.75
2018-05-29T08:07:32.950Z,58.07
2018-05-29T08:09:00.688Z,57.96
2018-05-29T08:10:28.023Z,58.07
2018-05-29T08:11:59.634Z,57.94
2018-05-29T08:13:27.099Z,57.86
2018-05-29T08:14:50.213Z,57.76
2018-05-29T08:16:17.952Z,59.07
2018-05-29T08:17:49.021Z,59.66
2018-05-29T08:19:12.630Z,58.77
2018-05-29T08:20:40.321Z,59.01
2018-05-29T08:22:12.235Z,60.76
2018-05-29T08:23:35.834Z,57.27
2018-05-29T08:25:03.453Z,56.46
2018-05-29T08:26:31.023Z,57.52
2018-05-29T08:27:58.631Z,56.95
2018-05-29T08:29:26.237Z,58.38
2018-05-29T08:30:57.859Z,56.42
2018-05-29T08:32:21.127Z,56.42
2018-05-29T08:33:48.663Z,56.16
2018-05-29T08:35:20.385Z,56.93
2018-05-29T08:36:44.135Z,58.34
2018-05-29T08:38:11.618Z,59.53
2018-05-29T08:39:39.344Z,56.05
2018-05-29T08:41:11.032Z,56.88
2018-05-29T08:42:38.798Z,57.34
2018-05-29T08:44:06.307Z,57.66
2018-05-29T08:45:34.350Z,57.85
2018-05-29T08:46:56.902Z,55.82
2018-05-29T08:48:28.383Z,54.78
2018-05-29T08:49:51.835Z,55.61
2018-05-29T08:51:19.329Z,56.68
2018-05-29T08:52:47.060Z,55.85
2018-05-29T08:54:14.517Z,58.00
2018-05-29T08:55:46.180Z,57.48
2018-05-29T08:57:13.826Z,55.62
2018-05-29T08:58:37.585Z,56.01
2018-05-29T09:00:05.340Z,55.88
2018-05-29T09:01:33.029Z,54.82
2018-05-29T09:03:00.269Z,54.80
2018-05-29T09:04:28.315Z,54.35
2018-05-29T09:05:55.982Z,55.09
2018-05-29T09:07:27.483Z,56.31
2018-05-29T09:08:50.756Z,53.99
2018-05-29T09:10:18.518Z,52.28
2018-05-29T09:11:45.905Z,52.07
2018-05-29T09:13:13.614Z,52.54
2018-05-29T09:14:41.149Z,52.61
2018-05-29T09:16:08.949Z,54.27
2018-05-29T09:17:36.590Z,53.97
2018-05-29T09:19:04.427Z,53.58
2018-05-29T09:20:31.892Z,54.40
2018-05-29T09:22:03.613Z,53.76
2018-05-29T09:23:31.197Z,53.59
2018-05-29T09:24:54.646Z,52.69
2018-05-29T09:26:22.320Z,53.11
2018-05-29T09:27:53.842Z,51.66
2018-05-29T09:29:17.531Z,49.64
2018-05-29T09:30:45.282Z,49.28
2018-05-29T09:32:12.977Z,50.68
2018-05-29T09:33:40.715Z,50.44
2018-05-29T09:35:08.220Z,48.77
2018-05-29T09:36:35.927Z,49.01
2018-05-29T09:38:03.630Z,49.14
2018-05-29T09:39:31.399Z,49.28
2018-05-29T09:40:59.039Z,50.42
2018-05-29T09:42:26.510Z,48.85
2018-05-29T09:43:53.968Z,47.38
2018-05-29T09:45:21.364Z,48.10
2018-05-29T09:46:53.184Z,49.57
2018-05-29T09:48:16.484Z,51.35
2018-05-29T09:49:44.250Z,48.48
2018-05-29T09:51:15.667Z,49.06
2018-05-29T09:52:43.358Z,49.85
2018-05-29T09:54:11.027Z,49.05
2018-05-29T09:55:38.703Z,47.92
2018-05-29T09:57:02.243Z,47.22
2018-05-29T09:58:29.941Z,47.58
2018-05-29T10:00:01.216Z,47.26
2018-05-29T10:01:28.864Z,47.75
2018-05-29T10:02:56.366Z,47.99
2018-05-29T10:04:23.599Z,48.12
2018-05-29T10:05:47.056Z,47.21
2018-05-29T10:07:14.766Z,47.68
2018-05-29T10:08:42.357Z,48.18
2018-05-29T10:10:09.989Z,47.19
2018-05-29T10:11:37.577Z,48.02
2018-05-29T10:13:05.213Z,48.57
2018-05-29T10:14:32.904Z,47.34
2018-05-29T10:16:04.168Z,47.06
2018-05-29T10:17:27.801Z,48.14
2018-05-29T10:18:55.427Z,47.01
2018-05-29T10:20:22.870Z,46.48
2018-05-29T10:21:50.463Z,46.39
2018-05-29T10:23:18.165Z,47.51
2018-05-29T10:24:45.767Z,47.08
2018-05-29T10:26:13.427Z,47.49
2018-05-29T10:27:41.071Z,46.35
2018-05-29T10:29:08.893Z,44.63
2018-05-29T10:30:40.311Z,44.86
2018-05-29T10:32:04.026Z,46.28
2018-05-29T10:33:31.750Z,45.14
2018-05-29T10:35:03.168Z,44.57
2018-05-29T10:36:26.848Z,45.21
2018-05-29T10:37:54.331Z,44.52
2018-05-29T10:39:22.028Z,43.53
2018-05-29T10:40:53.591Z,43.81
2018-05-29T10:42:21.303Z,44.66
2018-05-29T10:43:44.971Z,44.66
2018-05-29T10:45:16.507Z,44.81
2018-05-29T10:46:40.227Z,44.99
2018-05-29T10:48:11.962Z,43.84
2018-05-29T10:49:35.666Z,44.75
2018-05-29T10:51:03.153Z,43.56
2018-05-29T10:52:30.925Z,44.40
2018-05-29T10:53:58.662Z,44.13
2018-05-29T10:55:26.260Z,44.90
2018-05-29T10:56:54.090Z,43.03
2018-05-29T10:58:21.477Z,43.48
2018-05-29T10:59:49.205Z,42.88
2018-05-29T11:01:16.883Z,42.45
2018-05-29T11:02:44.450Z,42.95
2018-05-29T11:04:12.278Z,43.13
2018-05-29T11:05:40.087Z,43.75
2018-05-29T11:07:07.710Z,43.21
2018-05-29T11:08:35.383Z,42.98
2018-05-29T11:10:03.033Z,42.20
2018-05-29T11:11:30.837Z,40.57
2018-05-29T11:12:58.315Z,41.12
2018-05-29T11:14:25.879Z,41.58
2018-05-29T11:15:57.527Z,41.34
2018-05-29T11:17:20.893Z,41.89
2018-05-29T11:18:47.886Z,41.27
2018-05-29T11:20:19.688Z,41.16
2018-05-29T11:21:42.965Z,41.97
2018-05-29T11:23:10.707Z,42.03
2018-05-29T11:24:38.415Z,42.88
2018-05-29T11:26:06.244Z,41.23
2018-05-29T11:27:33.877Z,41.76
2018-05-29T11:29:01.784Z,41.15
2018-05-29T11:30:29.472Z,41.24
2018-05-29T11:31:57.064Z,40.39
2018-05-29T11:33:28.133Z,40.96
2018-05-29T11:34:51.705Z,39.32
2018-05-29T11:36:19.298Z,39.03
2018-05-29T11:37:51.074Z,38.81
2018-05-29T11:39:14.637Z,39.52
2018-05-29T11:40:46.484Z,39.32
2018-05-29T11:42:10.243Z,39.91
2018-05-29T11:43:37.875Z,39.73
2018-05-29T11:45:05.635Z,39.16
2018-05-29T11:46:37.341Z,38.47
2018-05-29T11:48:01.035Z,38.59
2018-05-29T11:49:32.809Z,38.33
2018-05-29T11:50:56.258Z,39.45
2018-05-29T11:52:24.059Z,38.72
2018-05-29T11:53:55.537Z,38.77
2018-05-29T11:55:19.311Z,37.85
2018-05-29T11:56:46.910Z,37.36
2018-05-29T11:58:18.686Z,38.03
2018-05-29T11:59:42.157Z,38.12
2018-05-29T12:01:10.004Z,38.18
2018-05-29T12:02:37.321Z,37.93
2018-05-29T12:04:05.143Z,36.63
2018-05-29T12:05:32.882Z,37.88
2018-05-29T12:07:00.676Z,37.62
2018-05-29T12:08:32.358Z,37.10
2018-05-29T12:09:55.901Z,36.95
2018-05-29T12:11:23.375Z,36.70
2018-05-29T12:12:50.979Z,36.68
2018-05-29T12:14:18.606Z,36.58
2018-05-29T12:15:45.712Z,36.37
2018-05-29T12:17:17.544Z,37.20
2018-05-29T12:18:40.890Z,35.81
2018-05-29T12:20:08.757Z,35.89
2018-05-29T12:21:36.372Z,36.97
2018-05-29T12:23:08.128Z,36.02
2018-05-29T12:24:31.238Z,37.74
2018-05-29T12:25:58.848Z,36.18
2018-05-29T12:27:26.257Z,35.15
2018-05-29T12:28:53.823Z,35.25
2018-05-29T12:30:21.055Z,35.84
2018-05-29T12:31:48.873Z,36.60
2018-05-29T12:33:16.590Z,37.46
2018-05-29T12:34:43.815Z,35.90
2018-05-29T12:36:15.386Z,37.37
2018-05-29T12:37:39.143Z,36.24
2018-05-29T12:39:06.790Z,36.71
2018-05-29T12:40:38.473Z,36.65
2018-05-29T12:42:01.340Z,36.39
2018-05-29T12:43:32.552Z,36.46
2018-05-29T12:44:56.096Z,36.70
2018-05-29T12:46:24.010Z,36.42
2018-05-29T12:47:55.294Z,37.09
2018-05-29T12:49:19.092Z,36.95
2018-05-29T12:50:50.806Z,36.62
2018-05-29T12:52:17.807Z,36.42
2018-05-29T12:53:41.512Z,36.73
2018-05-29T12:55:09.166Z,37.88
2018-05-29T12:56:40.899Z,35.77
2018-05-29T12:58:08.543Z,35.95
2018-05-29T12:59:36.308Z,34.43
2018-05-29T13:00:59.309Z,35.48
2018-05-29T13:02:26.665Z,36.38
2018-05-29T13:03:58.289Z,36.97
2018-05-29T13:05:22.070Z,36.69
2018-05-29T13:06:49.533Z,35.58
2018-05-29T13:08:17.104Z,37.22
2018-05-29T13:09:48.671Z,37.04
2018-05-29T13:11:16.419Z,37.41
2018-05-29T13:12:40.212Z,38.38
2018-05-29T13:14:07.916Z,39.32
2018-05-29T13:15:35.620Z,39.20
2018-05-29T13:17:03.340Z,38.53
2018-05-29T13:18:31.079Z,36.88
2018-05-29T13:19:58.649Z,37.47
2018-05-29T13:21:25.836Z,37.04
2018-05-29T13:22:53.040Z,37.21
2018-05-29T13:24:20.584Z,36.85
2018-05-29T13:25:48.306Z,35.83
2018-05-29T13:27:19.809Z,36.77
2018-05-29T13:28:43.487Z,36.39
2018-05-29T13:30:15.078Z,37.81
2018-05-29T13:31:38.875Z,38.03
2018-05-29T13:33:09.868Z,38.98
2018-05-29T13:34:33.548Z,36.24
2018-05-29T13:36:01.295Z,36.33
2018-05-29T13:37:28.986Z,37.25
2018-05-29T13:38:56.379Z,37.75
2018-05-29T13:40:23.745Z,37.08
2018-05-29T13:41:55.255Z,38.72
2018-05-29T13:43:23.017Z,37.59
2018-05-29T13:44:46.740Z,39.15
2018-05-29T13:46:14.126Z,37.47
2018-05-29T13:47:45.836Z,35.40
2018-05-29T13:49:09.610Z,36.88
2018-05-29T13:50:37.052Z,38.13
2018-05-29T13:52:04.762Z,38.69
2018-05-29T13:53:32.468Z,37.78
2018-05-29T13:54:59.794Z,37.99
2018-05-29T13:56:26.981Z,38.81
2018-05-29T13:57:58.742Z,38.27
2018-05-29T13:59:25.910Z,37.79
2018-05-29T14:00:49.574Z,37.53
2018-05-29T14:02:21.315Z,38.43
2018-05-29T14:03:44.823Z,38.14
2018-05-29T14:05:11.883Z,39.07
2018-05-29T14:06:39.563Z,38.23
2018-05-29T14:08:07.276Z,37.15
2018-05-29T14:09:38.970Z,37.63
2018-05-29T14:11:02.241Z,37.35
2018-05-29T14:12:33.993Z,37.88
2018-05-29T14:13:57.577Z,37.75
2018-05-29T14:15:29.131Z,38.18
2018-05-29T14:16:52.603Z,38.88
2018-05-29T14:18:20.027Z,38.96
2018-05-29T14:19:47.178Z,38.53
2018-05-29T14:21:15.034Z,38.97
2018-05-29T14:22:42.784Z,38.07
2018-05-29T14:24:10.403Z,38.18
2018-05-29T14:25:41.961Z,37.63
2018-05-29T14:27:05.068Z,36.94
2018-05-29T14:28:32.732Z,37.87
2018-05-29T14:30:00.087Z,36.35
2018-05-29T14:31:31.360Z,37.38
2018-05-29T14:32:54.998Z,37.00
2018-05-29T14:34:22.745Z,37.00
2018-05-29T14:35:50.401Z,37.82
2018-05-29T14:37:17.654Z,38.19
2018-05-29T14:38:45.315Z,39.18
2018-05-29T14:40:16.838Z,37.87
2018-05-29T14:41:44.663Z,37.98
2018-05-29T14:43:07.946Z,38.20
2018-05-29T14:44:35.706Z,38.59
2018-05-29T14:46:07.396Z,38.17
2018-05-29T14:47:30.785Z,38.39
2018-05-29T14:49:02.381Z,38.99
2018-05-29T14:50:25.834Z,39.30
2018-05-29T14:51:57.507Z,39.40
2018-05-29T14:53:21.206Z,39.50
2018-05-29T14:54:52.328Z,39.21
2018-05-29T14:56:15.709Z,39.11
2018-05-29T14:57:43.209Z,38.90
2018-05-29T14:59:10.958Z,39.02
2018-05-29T15:00:38.617Z,37.44
2018-05-29T15:02:06.101Z,36.80
2018-05-29T15:03:33.442Z,37.60
2018-05-29T15:05:05.181Z,35.94
2018-05-29T15:06:28.765Z,35.50
2018-05-29T15:07:56.258Z,36.98
2018-05-29T15:09:23.663Z,36.55
2018-05-29T15:10:55.618Z,36.77
2018-05-29T15:12:19.367Z,36.69
2018-05-29T15:13:50.962Z,35.84
2018-05-29T15:15:14.710Z,35.84
2018-05-29T15:16:46.415Z,36.81
2018-05-29T15:18:10.088Z,37.32
2018-05-29T15:19:33.976Z,37.22
2018-05-29T15:21:08.628Z,37.42
2018-05-29T15:22:32.353Z,37.14
2018-05-29T15:23:59.983Z,36.61
2018-05-29T15:25:27.547Z,36.31
2018-05-29T15:26:59.225Z,36.38
2018-05-29T15:28:26.695Z,36.75
2018-05-29T15:29:50.353Z,36.99
2018-05-29T15:31:18.064Z,37.13
2018-05-29T15:32:45.773Z,37.61
2018-05-29T15:34:13.543Z,37.48
2018-05-29T15:35:41.080Z,38.15
2018-05-29T15:37:08.013Z,38.20
2018-05-29T15:38:39.661Z,37.69
2018-05-29T15:40:06.919Z,37.67
2018-05-29T15:41:30.588Z,38.85
2018-05-29T15:42:58.227Z,39.66
2018-05-29T15:44:30.047Z,40.08
2018-05-29T15:45:57.627Z,38.67
2018-05-29T15:47:21.103Z,38.19
2018-05-29T15:48:48.824Z,37.50
2018-05-29T15:50:16.502Z,38.12
2018-05-29T15:51:44.272Z,38.94
2018-05-29T15:53:11.725Z,40.24
2018-05-29T15:54:39.373Z,41.11
2018-05-29T15:56:06.623Z,40.75
2018-05-29T15:57:37.823Z,41.28
2018-05-29T15:59:01.379Z,41.69
2018-05-29T16:00:29.093Z,40.75
2018-05-29T16:01:56.584Z,40.94
2018-05-29T16:03:23.499Z,41.32
2018-05-29T16:04:51.118Z,41.66
2018-05-29T16:06:18.892Z,40.96
2018-05-29T16:07:46.399Z,41.86
2018-05-29T16:09:14.163Z,41.36
2018-05-29T16:10:45.531Z,42.45
2018-05-29T16:12:13.263Z,41.87
2018-05-29T16:13:36.859Z,41.69
2018-05-29T16:15:04.436Z,42.19
2018-05-29T16:16:36.077Z,41.58
2018-05-29T16:17:59.445Z,41.73
2018-05-29T16:19:27.261Z,41.47
2018-05-29T16:20:54.551Z,41.25
2018-05-29T16:22:25.756Z,42.01
2018-05-29T16:23:49.016Z,41.45
2018-05-29T16:25:15.919Z,41.97
2018-05-29T16:26:43.271Z,41.79
2018-05-29T16:28:10.949Z,42.18
2018-05-29T16:29:38.476Z,42.06
2018-05-29T16:31:06.173Z,42.12
2018-05-29T16:32:33.906Z,42.58
2018-05-29T16:34:01.582Z,43.26
2018-05-29T16:35:28.998Z,43.70
2018-05-29T16:37:00.436Z,44.12
2018-05-29T16:38:24.242Z,44.07
2018-05-29T16:39:51.832Z,44.84
2018-05-29T16:41:19.603Z,45.09
2018-05-29T16:42:47.301Z,45.55
2018-05-29T16:44:15.094Z,44.99
2018-05-29T16:45:42.656Z,45.18
2018-05-29T16:47:14.325Z,45.71
2018-05-29T16:48:38.104Z,45.31
2018-05-29T16:50:05.218Z,44.91
2018-05-29T16:51:32.883Z,46.08
2018-05-29T16:53:04.428Z,44.98
2018-05-29T16:54:28.173Z,45.46
2018-05-29T16:55:55.615Z,45.31
2018-05-29T16:57:23.251Z,44.79
2018-05-29T16:58:50.834Z,45.09
2018-05-29T17:00:18.441Z,45.36
2018-05-29T17:01:46.156Z,45.79
2018-05-29T17:03:17.826Z,44.18
2018-05-29T17:04:41.500Z,44.03
2018-05-29T17:06:13.146Z,45.07
2018-05-29T17:07:36.833Z,45.02
2018-05-29T17:09:04.304Z,45.27
2018-05-29T17:10:31.942Z,46.32
2018-05-29T17:12:03.512Z,45.45
2018-05-29T17:13:27.298Z,46.21
2018-05-29T17:14:54.576Z,47.15
2018-05-29T17:16:22.293Z,47.59
2018-05-29T17:17:49.901Z,47.81
2018-05-29T17:19:17.526Z,47.84
2018-05-29T17:20:45.241Z,46.97
2018-05-29T17:22:12.751Z,48.18
2018-05-29T17:23:40.421Z,47.30
2018-05-29T17:25:08.010Z,47.43
2018-05-29T17:26:39.699Z,47.86
2018-05-29T17:28:03.200Z,47.34
2018-05-29T17:29:30.861Z,48.05
2018-05-29T17:30:58.513Z,47.25
2018-05-29T17:32:26.067Z,47.31
2018-05-29T17:33:57.604Z,47.67
2018-05-29T17:35:20.931Z,48.59
2018-05-29T17:36:48.387Z,48.18
2018-05-29T17:38:15.877Z,48.51
2018-05-29T17:39:43.484Z,48.97
2018-05-29T17:41:11.184Z,49.09
2018-05-29T17:42:42.581Z,48.82
2018-05-29T17:44:06.394Z,48.29
2018-05-29T17:45:38.081Z,48.99
2018-05-29T17:47:01.749Z,48.18
2018-05-29T17:48:29.153Z,48.48
2018-05-29T17:49:56.725Z,48.67
2018-05-29T17:51:24.371Z,49.22
2018-05-29T17:52:56.043Z,48.77
2018-05-29T17:54:19.665Z,48.93
2018-05-29T17:55:46.923Z,48.74
2018-05-29T17:57:18.211Z,49.43
2018-05-29T17:58:41.822Z,49.42
2018-05-29T18:00:09.363Z,49.61
2018-05-29T18:01:37.088Z,49.84
2018-05-29T18:03:08.807Z,49.55
2018-05-29T18:04:31.712Z,49.89
2018-05-29T18:05:59.472Z,49.88
2018-05-29T18:07:27.187Z,49.82
2018-05-29T18:08:54.745Z,49.61
2018-05-29T18:10:22.138Z,50.05
2018-05-29T18:11:49.618Z,49.63
2018-05-29T18:13:21.289Z,49.85
2018-05-29T18:14:48.823Z,49.99
2018-05-29T18:16:12.411Z,49.98
2018-05-29T18:17:39.828Z,50.09
2018-05-29T18:19:11.457Z,50.59
2018-05-29T18:20:35.005Z,50.84
2018-05-29T18:22:06.529Z,51.06
2018-05-29T18:23:30.209Z,51.24
2018-05-29T18:24:57.839Z,51.66
2018-05-29T18:26:25.147Z,52.16
2018-05-29T18:27:52.644Z,52.34
2018-05-29T18:29:19.996Z,53.02
2018-05-29T18:30:47.523Z,53.26
2018-05-29T18:32:15.048Z,53.97
2018-05-29T18:33:42.732Z,54.10
2018-05-29T18:35:10.416Z,54.43
2018-05-29T18:36:42.045Z,54.69
2018-05-29T18:38:05.532Z,55.09
2018-05-29T18:39:37.076Z,55.12
2018-05-29T18:41:04.667Z,55.35
2018-05-29T18:42:28.254Z,54.97
2018-05-29T18:43:55.884Z,55.37
2018-05-29T18:45:23.516Z,55.32
2018-05-29T18:46:50.901Z,54.92